sensor_id;sensor_type;location;lat;lon;timestamp;pressure;altitude;pressure_sealevel;temperature;humidity
49341;BME280;35209;51.050;13.678;2023-05-02T00:03:54;99765.63;;;12.81;77.04
49341;BME280;35209;51.050;13.678;2023-05-02T00:08:56;99765.22;;;12.70;77.28
49341;BME280;35209;51.050;13.678;2023-05-02T00:13:58;99765.69;;;12.79;77.68
49341;BME280;35209;51.050;13.678;2023-05-02T00:19:00;99776.63;;;12.70;77.27
49341;BME280;35209;51.050;13.678;2023-05-02T00:24:02;99778.22;;;12.74;78.77
49341;BME280;35209;51.050;13.678;2023-05-02T00:29:04;99781.91;;;12.70;79.84
49341;BME280;35209;51.050;13.678;2023-05-02T00:34:06;99779.44;;;12.67;80.63
49341;BME280;35209;51.050;13.678;2023-05-02T00:39:08;99780.41;;;12.65;80.83
49341;BME280;35209;51.050;13.678;2023-05-02T00:44:10;99786.84;;;12.78;79.99
49341;BME280;35209;51.050;13.678;2023-05-02T00:49:11;99787.66;;;12.59;81.77
49341;BME280;35209;51.050;13.678;2023-05-02T00:54:13;99794.81;;;12.57;81.95
49341;BME280;35209;51.050;13.678;2023-05-02T00:59:15;99793.66;;;12.63;81.91
49341;BME280;35209;51.050;13.678;2023-05-02T01:09:56;99786.88;;;12.57;81.85
49341;BME280;35209;51.050;13.678;2023-05-02T01:15:05;99781.09;;;12.49;81.55
49341;BME280;35209;51.050;13.678;2023-05-02T01:20:11;99778.81;;;12.60;80.60
49341;BME280;35209;51.050;13.678;2023-05-02T01:25:25;99770.72;;;12.65;79.32
49341;BME280;35209;51.050;13.678;2023-05-02T01:30:33;99760.66;;;12.54;80.06
49341;BME280;35209;51.050;13.678;2023-05-02T01:35:37;99772.25;;;12.71;78.47
49341;BME280;35209;51.050;13.678;2023-05-02T01:40:40;99769.09;;;12.81;77.29
49341;BME280;35209;51.050;13.678;2023-05-02T01:45:47;99771.16;;;12.75;77.29
49341;BME280;35209;51.050;13.678;2023-05-02T01:50:52;99770.38;;;12.73;75.67
49341;BME280;35209;51.050;13.678;2023-05-02T01:55:56;99768.88;;;12.67;76.72
49341;BME280;35209;51.050;13.678;2023-05-02T02:01:00;99765.84;;;12.56;77.33
49341;BME280;35209;51.050;13.678;2023-05-02T02:06:02;99774.47;;;12.59;77.09
49341;BME280;35209;51.050;13.678;2023-05-02T02:11:08;99771.59;;;12.45;76.91
49341;BME280;35209;51.050;13.678;2023-05-02T02:16:12;99776.72;;;12.48;77.14
49341;BME280;35209;51.050;13.678;2023-05-02T02:21:17;99780.81;;;12.55;77.76
49341;BME280;35209;51.050;13.678;2023-05-02T02:26:21;99791.44;;;12.54;77.91
49341;BME280;35209;51.050;13.678;2023-05-02T02:31:23;99789.69;;;12.73;77.04
49341;BME280;35209;51.050;13.678;2023-05-02T02:36:38;99798.34;;;12.56;77.43
49341;BME280;35209;51.050;13.678;2023-05-02T02:47:12;99808.69;;;12.81;71.72
49341;BME280;35209;51.050;13.678;2023-05-02T02:58:06;99834.31;;;12.98;71.68
49341;BME280;35209;51.050;13.678;2023-05-02T03:03:11;99833.28;;;13.01;72.59
49341;BME280;35209;51.050;13.678;2023-05-02T03:08:14;99835.69;;;12.86;73.54
49341;BME280;35209;51.050;13.678;2023-05-02T03:13:16;99835.69;;;12.86;73.47
49341;BME280;35209;51.050;13.678;2023-05-02T03:18:20;99841.91;;;12.85;73.30
49341;BME280;35209;51.050;13.678;2023-05-02T03:23:27;99842.19;;;12.59;74.78
49341;BME280;35209;51.050;13.678;2023-05-02T03:28:29;99864.25;;;12.56;75.45
49341;BME280;35209;51.050;13.678;2023-05-02T03:33:32;99863.25;;;12.38;76.24
49341;BME280;35209;51.050;13.678;2023-05-02T03:38:34;99870.97;;;12.43;76.09
49341;BME280;35209;51.050;13.678;2023-05-02T03:43:40;99871.06;;;12.20;77.60
49341;BME280;35209;51.050;13.678;2023-05-02T03:48:41;99870.88;;;12.24;77.66
49341;BME280;35209;51.050;13.678;2023-05-02T03:53:45;99884.56;;;12.12;78.32
49341;BME280;35209;51.050;13.678;2023-05-02T03:58:47;99886.28;;;12.13;77.74
49341;BME280;35209;51.050;13.678;2023-05-02T04:03:53;99897.25;;;11.79;80.04
49341;BME280;35209;51.050;13.678;2023-05-02T04:08:57;99900.25;;;11.93;78.88
49341;BME280;35209;51.050;13.678;2023-05-02T04:14:06;99914.28;;;11.70;80.40
49341;BME280;35209;51.050;13.678;2023-05-02T04:19:08;99918.38;;;11.77;79.11
49341;BME280;35209;51.050;13.678;2023-05-02T04:24:12;99934.31;;;11.98;78.04
49341;BME280;35209;51.050;13.678;2023-05-02T04:29:14;99938.72;;;11.97;77.20
49341;BME280;35209;51.050;13.678;2023-05-02T04:34:17;99942.94;;;12.01;76.92
49341;BME280;35209;51.050;13.678;2023-05-02T04:39:19;99961.97;;;11.86;78.47
49341;BME280;35209;51.050;13.678;2023-05-02T04:44:33;99980.41;;;12.09;75.86
49341;BME280;35209;51.050;13.678;2023-05-02T04:49:35;99981.38;;;12.07;76.17
49341;BME280;35209;51.050;13.678;2023-05-02T04:54:37;99987.13;;;12.17;75.96
49341;BME280;35209;51.050;13.678;2023-05-02T04:59:38;99987.44;;;12.09;76.85
49341;BME280;35209;51.050;13.678;2023-05-02T05:04:41;100004.69;;;12.40;73.83
49341;BME280;35209;51.050;13.678;2023-05-02T05:09:43;100008.78;;;12.47;73.80
49341;BME280;35209;51.050;13.678;2023-05-02T05:14:45;100015.47;;;12.55;73.07
49341;BME280;35209;51.050;13.678;2023-05-02T05:19:47;100028.59;;;12.57;72.07
49341;BME280;35209;51.050;13.678;2023-05-02T05:24:53;100048.25;;;12.48;72.80
49341;BME280;35209;51.050;13.678;2023-05-02T05:29:57;100050.56;;;12.57;73.35
49341;BME280;35209;51.050;13.678;2023-05-02T05:35:00;100043.91;;;12.47;73.85
49341;BME280;35209;51.050;13.678;2023-05-02T05:40:03;100057.66;;;12.77;71.75
49341;BME280;35209;51.050;13.678;2023-05-02T05:45:05;100052.75;;;12.68;72.48
49341;BME280;35209;51.050;13.678;2023-05-02T05:50:08;100062.53;;;13.08;70.09
49341;BME280;35209;51.050;13.678;2023-05-02T05:55:10;100069.28;;;13.16;69.34
49341;BME280;35209;51.050;13.678;2023-05-02T06:00:16;100077.88;;;13.21;68.49
49341;BME280;35209;51.050;13.678;2023-05-02T06:05:22;100091.69;;;13.27;66.51
49341;BME280;35209;51.050;13.678;2023-05-02T06:10:30;100097.88;;;13.69;65.85
49341;BME280;35209;51.050;13.678;2023-05-02T06:15:33;100105.84;;;13.67;65.86
49341;BME280;35209;51.050;13.678;2023-05-02T06:20:38;100117.66;;;13.79;65.08
49341;BME280;35209;51.050;13.678;2023-05-02T06:25:40;100132.59;;;13.59;66.70
49341;BME280;35209;51.050;13.678;2023-05-02T06:30:42;100139.28;;;14.07;66.00
49341;BME280;35209;51.050;13.678;2023-05-02T06:35:50;100151.97;;;14.20;65.57
49341;BME280;35209;51.050;13.678;2023-05-02T06:40:52;100151.94;;;14.21;62.61
49341;BME280;35209;51.050;13.678;2023-05-02T06:45:54;100167.72;;;14.23;61.44
49341;BME280;35209;51.050;13.678;2023-05-02T06:51:00;100175.19;;;14.13;63.05
49341;BME280;35209;51.050;13.678;2023-05-02T06:56:02;100182.44;;;14.28;61.43
49341;BME280;35209;51.050;13.678;2023-05-02T07:01:03;100191.06;;;14.13;60.86
49341;BME280;35209;51.050;13.678;2023-05-02T07:06:05;100196.59;;;14.27;60.44
49341;BME280;35209;51.050;13.678;2023-05-02T07:11:07;100205.91;;;14.36;60.85
49341;BME280;35209;51.050;13.678;2023-05-02T07:16:09;100206.31;;;14.27;58.35
49341;BME280;35209;51.050;13.678;2023-05-02T07:21:11;100223.19;;;14.82;58.38
49341;BME280;35209;51.050;13.678;2023-05-02T07:26:13;100227.84;;;14.58;58.36
49341;BME280;35209;51.050;13.678;2023-05-02T07:31:15;100237.31;;;14.23;62.51
49341;BME280;35209;51.050;13.678;2023-05-02T07:36:19;100244.63;;;13.96;64.61
49341;BME280;35209;51.050;13.678;2023-05-02T07:41:22;100254.84;;;14.26;65.32
49341;BME280;35209;51.050;13.678;2023-05-02T07:46:23;100263.41;;;13.90;65.39
49341;BME280;35209;51.050;13.678;2023-05-02T07:51:25;100271.25;;;13.92;66.16
49341;BME280;35209;51.050;13.678;2023-05-02T07:56:27;100276.47;;;13.93;66.04
49341;BME280;35209;51.050;13.678;2023-05-02T08:01:28;100288.91;;;13.91;65.94
49341;BME280;35209;51.050;13.678;2023-05-02T08:06:30;100297.03;;;13.86;66.45
49341;BME280;35209;51.050;13.678;2023-05-02T08:11:35;100298.06;;;14.45;63.42
49341;BME280;35209;51.050;13.678;2023-05-02T08:16:36;100298.50;;;15.14;62.24
49341;BME280;35209;51.050;13.678;2023-05-02T08:21:38;100311.97;;;15.10;59.39
49341;BME280;35209;51.050;13.678;2023-05-02T08:26:40;100313.53;;;15.33;60.98
49341;BME280;35209;51.050;13.678;2023-05-02T08:31:42;100324.59;;;15.60;59.28
49341;BME280;35209;51.050;13.678;2023-05-02T08:36:43;100323.19;;;15.34;58.64
49341;BME280;35209;51.050;13.678;2023-05-02T08:41:45;100327.66;;;14.94;61.41
49341;BME280;35209;51.050;13.678;2023-05-02T08:46:48;100338.78;;;14.82;63.00
49341;BME280;35209;51.050;13.678;2023-05-02T08:51:52;100337.88;;;15.41;60.08
49341;BME280;35209;51.050;13.678;2023-05-02T08:56:55;100345.09;;;15.19;59.77
49341;BME280;35209;51.050;13.678;2023-05-02T09:02:04;100343.31;;;15.38;58.27
49341;BME280;35209;51.050;13.678;2023-05-02T09:07:15;100355.34;;;15.45;58.57
49341;BME280;35209;51.050;13.678;2023-05-02T09:12:23;100364.66;;;15.54;56.18
49341;BME280;35209;51.050;13.678;2023-05-02T09:17:25;100372.16;;;15.44;54.08
49341;BME280;35209;51.050;13.678;2023-05-02T09:22:27;100379.19;;;15.45;53.87
49341;BME280;35209;51.050;13.678;2023-05-02T09:27:29;100382.91;;;15.60;57.94
49341;BME280;35209;51.050;13.678;2023-05-02T09:32:47;100386.41;;;15.79;57.33
49341;BME280;35209;51.050;13.678;2023-05-02T09:37:53;100388.00;;;15.64;58.24
49341;BME280;35209;51.050;13.678;2023-05-02T09:42:55;100385.50;;;16.17;57.69
49341;BME280;35209;51.050;13.678;2023-05-02T09:48:00;100388.25;;;16.32;55.52
49341;BME280;35209;51.050;13.678;2023-05-02T09:53:07;100389.41;;;16.27;56.48
49341;BME280;35209;51.050;13.678;2023-05-02T09:58:20;100394.72;;;16.27;58.32
49341;BME280;35209;51.050;13.678;2023-05-02T10:03:27;100401.06;;;15.69;58.01
49341;BME280;35209;51.050;13.678;2023-05-02T10:08:32;100401.88;;;15.51;58.63
49341;BME280;35209;51.050;13.678;2023-05-02T10:13:37;100409.03;;;15.49;58.51
49341;BME280;35209;51.050;13.678;2023-05-02T10:18:42;100404.31;;;15.55;58.66
49341;BME280;35209;51.050;13.678;2023-05-02T10:23:49;100416.09;;;15.69;61.09
49341;BME280;35209;51.050;13.678;2023-05-02T10:28:55;100410.03;;;15.46;60.15
49341;BME280;35209;51.050;13.678;2023-05-02T10:33:57;100416.31;;;15.64;59.68
49341;BME280;35209;51.050;13.678;2023-05-02T10:39:01;100414.94;;;15.74;59.66
49341;BME280;35209;51.050;13.678;2023-05-02T10:44:03;100428.75;;;16.00;60.43
49341;BME280;35209;51.050;13.678;2023-05-02T10:49:12;100429.13;;;15.73;60.00
49341;BME280;35209;51.050;13.678;2023-05-02T10:59:27;100419.50;;;15.52;59.44
49341;BME280;35209;51.050;13.678;2023-05-02T11:05:01;100426.34;;;15.37;61.94
49341;BME280;35209;51.050;13.678;2023-05-02T11:20:30;100430.88;;;16.10;60.62
49341;BME280;35209;51.050;13.678;2023-05-02T11:25:37;100434.00;;;16.74;57.75
49341;BME280;35209;51.050;13.678;2023-05-02T11:30:43;100435.75;;;17.41;56.11
49341;BME280;35209;51.050;13.678;2023-05-02T11:35:46;100442.78;;;17.42;56.20
49341;BME280;35209;51.050;13.678;2023-05-02T11:40:58;100436.97;;;17.35;54.56
49341;BME280;35209;51.050;13.678;2023-05-02T11:46:00;100444.84;;;16.68;59.14
49341;BME280;35209;51.050;13.678;2023-05-02T11:51:03;100447.88;;;16.96;58.80
49341;BME280;35209;51.050;13.678;2023-05-02T11:56:07;100450.00;;;17.40;56.27
49341;BME280;35209;51.050;13.678;2023-05-02T12:01:13;100447.00;;;17.46;51.85
49341;BME280;35209;51.050;13.678;2023-05-02T12:06:16;100448.47;;;18.01;51.91
49341;BME280;35209;51.050;13.678;2023-05-02T12:11:24;100449.00;;;17.58;52.82
49341;BME280;35209;51.050;13.678;2023-05-02T12:16:25;100457.38;;;16.65;55.81
49341;BME280;35209;51.050;13.678;2023-05-02T12:21:27;100454.06;;;16.24;57.27
49341;BME280;35209;51.050;13.678;2023-05-02T12:26:36;100454.63;;;16.67;56.78
49341;BME280;35209;51.050;13.678;2023-05-02T12:31:37;100449.00;;;17.08;56.14
49341;BME280;35209;51.050;13.678;2023-05-02T12:36:43;100444.28;;;17.63;54.31
49341;BME280;35209;51.050;13.678;2023-05-02T12:41:47;100452.25;;;17.81;55.17
49341;BME280;35209;51.050;13.678;2023-05-02T12:46:58;100454.31;;;17.58;53.31
49341;BME280;35209;51.050;13.678;2023-05-02T12:52:01;100448.88;;;17.11;56.25
49341;BME280;35209;51.050;13.678;2023-05-02T12:57:03;100444.81;;;17.04;55.81
49341;BME280;35209;51.050;13.678;2023-05-02T13:02:04;100450.34;;;17.17;56.02
49341;BME280;35209;51.050;13.678;2023-05-02T13:07:06;100453.09;;;17.97;54.74
49341;BME280;35209;51.050;13.678;2023-05-02T13:12:08;100455.25;;;18.06;52.28
49341;BME280;35209;51.050;13.678;2023-05-02T13:17:10;100456.09;;;17.91;50.85
49341;BME280;35209;51.050;13.678;2023-05-02T13:22:12;100450.59;;;18.10;50.02
49341;BME280;35209;51.050;13.678;2023-05-02T13:27:14;100456.78;;;17.79;51.68
49341;BME280;35209;51.050;13.678;2023-05-02T13:32:15;100463.84;;;17.62;51.89
49341;BME280;35209;51.050;13.678;2023-05-02T13:37:17;100461.50;;;17.56;52.50
49341;BME280;35209;51.050;13.678;2023-05-02T13:42:19;100455.16;;;17.26;53.35
49341;BME280;35209;51.050;13.678;2023-05-02T13:47:20;100471.06;;;16.93;55.82
49341;BME280;35209;51.050;13.678;2023-05-02T13:52:22;100464.94;;;16.56;57.19
49341;BME280;35209;51.050;13.678;2023-05-02T13:57:24;100466.78;;;16.18;60.03
49341;BME280;35209;51.050;13.678;2023-05-02T14:02:26;100467.97;;;16.12;59.43
49341;BME280;35209;51.050;13.678;2023-05-02T14:07:28;100471.13;;;16.37;59.21
49341;BME280;35209;51.050;13.678;2023-05-02T14:12:29;100470.69;;;16.64;60.23
49341;BME280;35209;51.050;13.678;2023-05-02T14:17:32;100465.56;;;17.13;55.49
49341;BME280;35209;51.050;13.678;2023-05-02T14:22:33;100466.75;;;16.90;55.76
49341;BME280;35209;51.050;13.678;2023-05-02T14:27:35;100464.03;;;16.74;58.10
49341;BME280;35209;51.050;13.678;2023-05-02T14:32:37;100474.44;;;16.79;57.07
49341;BME280;35209;51.050;13.678;2023-05-02T14:37:38;100476.19;;;16.25;58.62
49341;BME280;35209;51.050;13.678;2023-05-02T14:42:41;100486.28;;;15.98;59.61
49341;BME280;35209;51.050;13.678;2023-05-02T14:47:43;100501.91;;;15.25;66.09
49341;BME280;35209;51.050;13.678;2023-05-02T14:52:44;100508.69;;;14.48;70.36
49341;BME280;35209;51.050;13.678;2023-05-02T14:57:49;100516.59;;;14.26;71.44
49341;BME280;35209;51.050;13.678;2023-05-02T15:02:51;100536.47;;;13.91;73.58
49341;BME280;35209;51.050;13.678;2023-05-02T15:07:53;100548.34;;;13.79;74.51
49341;BME280;35209;51.050;13.678;2023-05-02T15:12:55;100550.25;;;13.50;76.74
49341;BME280;35209;51.050;13.678;2023-05-02T15:17:57;100545.19;;;13.69;78.40
49341;BME280;35209;51.050;13.678;2023-05-02T15:22:59;100551.50;;;13.65;77.00
49341;BME280;35209;51.050;13.678;2023-05-02T15:28:07;100553.19;;;13.66;77.27
49341;BME280;35209;51.050;13.678;2023-05-02T15:33:09;100570.16;;;13.60;75.09
49341;BME280;35209;51.050;13.678;2023-05-02T15:38:13;100583.81;;;13.72;72.71
49341;BME280;35209;51.050;13.678;2023-05-02T15:43:14;100575.84;;;13.73;72.67
49341;BME280;35209;51.050;13.678;2023-05-02T15:48:18;100588.06;;;13.76;72.52
49341;BME280;35209;51.050;13.678;2023-05-02T15:53:23;100591.53;;;13.78;72.80
49341;BME280;35209;51.050;13.678;2023-05-02T15:58:25;100595.50;;;13.89;72.37
49341;BME280;35209;51.050;13.678;2023-05-02T16:03:30;100601.41;;;13.73;72.25
49341;BME280;35209;51.050;13.678;2023-05-02T16:08:32;100610.63;;;13.61;73.87
49341;BME280;35209;51.050;13.678;2023-05-02T16:13:37;100615.78;;;13.39;74.55
49341;BME280;35209;51.050;13.678;2023-05-02T16:18:42;100619.88;;;13.21;70.47
49341;BME280;35209;51.050;13.678;2023-05-02T16:23:44;100619.41;;;13.08;69.95
49341;BME280;35209;51.050;13.678;2023-05-02T16:28:46;100625.19;;;12.93;70.87
49341;BME280;35209;51.050;13.678;2023-05-02T16:33:48;100635.72;;;13.21;70.94
49341;BME280;35209;51.050;13.678;2023-05-02T16:38:51;100632.03;;;12.99;68.62
49341;BME280;35209;51.050;13.678;2023-05-02T16:43:52;100636.66;;;12.92;67.46
49341;BME280;35209;51.050;13.678;2023-05-02T16:48:54;100646.00;;;13.02;67.09
49341;BME280;35209;51.050;13.678;2023-05-02T16:53:56;100640.28;;;12.88;67.86
49341;BME280;35209;51.050;13.678;2023-05-02T16:58:57;100648.69;;;12.73;68.60
49341;BME280;35209;51.050;13.678;2023-05-02T17:03:59;100657.16;;;12.84;68.34
49341;BME280;35209;51.050;13.678;2023-05-02T17:09:01;100665.06;;;12.84;67.34
49341;BME280;35209;51.050;13.678;2023-05-02T17:14:04;100668.44;;;12.87;67.66
49341;BME280;35209;51.050;13.678;2023-05-02T17:19:05;100670.13;;;12.62;67.08
49341;BME280;35209;51.050;13.678;2023-05-02T17:24:08;100682.34;;;12.65;66.95
49341;BME280;35209;51.050;13.678;2023-05-02T17:29:09;100693.34;;;12.79;65.26
49341;BME280;35209;51.050;13.678;2023-05-02T17:34:11;100695.72;;;12.58;65.31
49341;BME280;35209;51.050;13.678;2023-05-02T17:39:13;100712.59;;;12.53;65.12
49341;BME280;35209;51.050;13.678;2023-05-02T17:44:16;100717.81;;;12.54;65.30
49341;BME280;35209;51.050;13.678;2023-05-02T17:49:18;100732.22;;;12.43;65.57
49341;BME280;35209;51.050;13.678;2023-05-02T17:54:20;100732.13;;;12.46;66.06
49341;BME280;35209;51.050;13.678;2023-05-02T17:59:21;100739.72;;;12.25;65.11
49341;BME280;35209;51.050;13.678;2023-05-02T18:04:23;100750.56;;;12.15;65.60
49341;BME280;35209;51.050;13.678;2023-05-02T18:09:25;100741.22;;;12.03;65.75
49341;BME280;35209;51.050;13.678;2023-05-02T18:14:27;100750.88;;;12.02;65.04
49341;BME280;35209;51.050;13.678;2023-05-02T18:19:29;100758.13;;;11.94;66.54
49341;BME280;35209;51.050;13.678;2023-05-02T18:24:30;100756.59;;;11.85;66.50
49341;BME280;35209;51.050;13.678;2023-05-02T18:29:36;100769.75;;;11.85;66.59
49341;BME280;35209;51.050;13.678;2023-05-02T18:34:37;100776.66;;;11.91;65.78
49341;BME280;35209;51.050;13.678;2023-05-02T18:39:39;100785.28;;;11.60;66.72
49341;BME280;35209;51.050;13.678;2023-05-02T18:44:41;100783.34;;;11.67;66.88
49341;BME280;35209;51.050;13.678;2023-05-02T18:49:43;100793.78;;;11.72;66.83
49341;BME280;35209;51.050;13.678;2023-05-02T18:54:44;100807.38;;;11.53;66.66
49341;BME280;35209;51.050;13.678;2023-05-02T18:59:47;100802.59;;;11.33;68.03
49341;BME280;35209;51.050;13.678;2023-05-02T19:04:52;100812.59;;;11.56;67.10
49341;BME280;35209;51.050;13.678;2023-05-02T19:09:54;100809.22;;;11.51;66.53
49341;BME280;35209;51.050;13.678;2023-05-02T19:14:55;100803.94;;;11.50;66.19
49341;BME280;35209;51.050;13.678;2023-05-02T19:19:57;100807.88;;;11.32;66.03
49341;BME280;35209;51.050;13.678;2023-05-02T19:24:59;100827.41;;;11.22;66.67
49341;BME280;35209;51.050;13.678;2023-05-02T19:30:01;100833.59;;;11.21;66.65
49341;BME280;35209;51.050;13.678;2023-05-02T19:35:04;100841.31;;;11.27;66.09
49341;BME280;35209;51.050;13.678;2023-05-02T19:40:07;100843.16;;;11.23;65.37
49341;BME280;35209;51.050;13.678;2023-05-02T19:45:11;100841.69;;;11.11;65.21
49341;BME280;35209;51.050;13.678;2023-05-02T19:50:14;100846.13;;;11.06;65.05
49341;BME280;35209;51.050;13.678;2023-05-02T19:55:16;100857.13;;;10.83;65.08
49341;BME280;35209;51.050;13.678;2023-05-02T20:00:18;100860.91;;;10.70;65.00
49341;BME280;35209;51.050;13.678;2023-05-02T20:05:20;100859.47;;;10.52;66.44
49341;BME280;35209;51.050;13.678;2023-05-02T20:10:22;100859.97;;;10.25;66.94
49341;BME280;35209;51.050;13.678;2023-05-02T20:15:24;100866.91;;;10.29;66.34
49341;BME280;35209;51.050;13.678;2023-05-02T20:20:27;100874.34;;;10.02;67.40
49341;BME280;35209;51.050;13.678;2023-05-02T20:25:29;100882.06;;;10.11;67.62
49341;BME280;35209;51.050;13.678;2023-05-02T20:30:30;100895.31;;;10.04;68.98
49341;BME280;35209;51.050;13.678;2023-05-02T20:35:32;100897.16;;;9.99;69.14
49341;BME280;35209;51.050;13.678;2023-05-02T20:40:37;100894.38;;;10.08;68.04
49341;BME280;35209;51.050;13.678;2023-05-02T20:45:39;100891.63;;;10.16;67.64
49341;BME280;35209;51.050;13.678;2023-05-02T20:50:41;100897.88;;;10.08;67.60
49341;BME280;35209;51.050;13.678;2023-05-02T20:55:42;100897.56;;;10.30;66.86
49341;BME280;35209;51.050;13.678;2023-05-02T21:00:44;100907.53;;;10.06;67.45
49341;BME280;35209;51.050;13.678;2023-05-02T21:05:55;100905.66;;;10.15;68.96
49341;BME280;35209;51.050;13.678;2023-05-02T21:10:57;100903.97;;;10.09;68.55
49341;BME280;35209;51.050;13.678;2023-05-02T21:15:58;100909.09;;;10.20;68.32
49341;BME280;35209;51.050;13.678;2023-05-02T21:21:00;100911.22;;;10.50;66.46
49341;BME280;35209;51.050;13.678;2023-05-02T21:26:02;100916.50;;;10.49;66.55
49341;BME280;35209;51.050;13.678;2023-05-02T21:31:05;100912.75;;;10.08;69.45
49341;BME280;35209;51.050;13.678;2023-05-02T21:36:08;100918.72;;;10.19;67.85
49341;BME280;35209;51.050;13.678;2023-05-02T21:41:09;100918.34;;;10.45;66.71
49341;BME280;35209;51.050;13.678;2023-05-02T21:46:11;100923.81;;;10.30;67.39
49341;BME280;35209;51.050;13.678;2023-05-02T21:51:13;100922.28;;;10.14;69.49
49341;BME280;35209;51.050;13.678;2023-05-02T21:56:14;100928.09;;;10.37;68.08
49341;BME280;35209;51.050;13.678;2023-05-02T22:01:16;100928.56;;;10.06;69.68
49341;BME280;35209;51.050;13.678;2023-05-02T22:06:18;100932.22;;;9.95;71.64
49341;BME280;35209;51.050;13.678;2023-05-02T22:11:20;100927.66;;;10.07;70.30
49341;BME280;35209;51.050;13.678;2023-05-02T22:16:22;100932.41;;;9.82;72.71
49341;BME280;35209;51.050;13.678;2023-05-02T22:21:24;100927.00;;;9.93;71.16
49341;BME280;35209;51.050;13.678;2023-05-02T22:26:26;100937.38;;;10.02;70.53
49341;BME280;35209;51.050;13.678;2023-05-02T22:31:27;100942.72;;;9.96;71.05
49341;BME280;35209;51.050;13.678;2023-05-02T22:36:29;100940.41;;;9.73;72.78
49341;BME280;35209;51.050;13.678;2023-05-02T22:41:31;100940.81;;;10.04;70.33
49341;BME280;35209;51.050;13.678;2023-05-02T22:46:33;100943.47;;;10.06;70.31
49341;BME280;35209;51.050;13.678;2023-05-02T22:51:36;100939.78;;;10.16;69.26
49341;BME280;35209;51.050;13.678;2023-05-02T22:56:40;100948.91;;;9.92;70.92
49341;BME280;35209;51.050;13.678;2023-05-02T23:01:42;100949.13;;;9.77;72.56
49341;BME280;35209;51.050;13.678;2023-05-02T23:06:43;100945.31;;;9.98;71.66
49341;BME280;35209;51.050;13.678;2023-05-02T23:11:45;100941.69;;;10.06;71.61
49341;BME280;35209;51.050;13.678;2023-05-02T23:16:47;100940.75;;;10.10;72.15
49341;BME280;35209;51.050;13.678;2023-05-02T23:21:50;100942.84;;;9.87;73.75
49341;BME280;35209;51.050;13.678;2023-05-02T23:26:52;100948.09;;;9.89;73.73
49341;BME280;35209;51.050;13.678;2023-05-02T23:31:53;100960.22;;;9.96;73.73
49341;BME280;35209;51.050;13.678;2023-05-02T23:36:56;100961.88;;;10.03;73.59
49341;BME280;35209;51.050;13.678;2023-05-02T23:41:57;100956.06;;;9.81;75.76
49341;BME280;35209;51.050;13.678;2023-05-02T23:46:59;100964.94;;;9.72;76.96
49341;BME280;35209;51.050;13.678;2023-05-02T23:52:01;100956.19;;;9.72;76.14
49341;BME280;35209;51.050;13.678;2023-05-02T23:57:03;100960.81;;;9.51;75.03
